createdAt,value
2022-09-26T00:03:14.390Z,3.55
2022-09-26T00:08:18.408Z,3.30
2022-09-26T00:13:23.697Z,3.30
2022-09-26T00:18:27.925Z,3.00
2022-09-26T00:23:31.850Z,2.80
2022-09-26T00:28:37.408Z,3.30
2022-09-26T00:33:41.453Z,3.58
2022-09-26T00:38:46.911Z,4.00
2022-09-26T00:43:53.853Z,3.15
2022-09-26T00:49:07.995Z,3.78
2022-09-26T00:54:14.707Z,3.85
2022-09-26T00:59:24.361Z,3.97
2022-09-26T01:04:30.480Z,4.30
2022-09-26T01:09:35.015Z,4.97
2022-09-26T01:14:42.998Z,4.63
2022-09-26T01:20:00.810Z,4.85
2022-09-26T01:25:23.332Z,4.97
2022-09-26T01:30:35.311Z,4.60
2022-09-26T01:36:02.055Z,5.18
2022-09-26T01:46:27.550Z,4.85
2022-09-26T01:56:41.509Z,5.55
2022-09-26T02:01:49.751Z,5.35
2022-09-26T02:06:59.583Z,5.40
2022-09-26T02:12:08.601Z,5.05
2022-09-26T02:17:22.923Z,5.10
2022-09-26T02:22:29.113Z,5.72
2022-09-26T02:27:33.151Z,4.45
2022-09-26T02:32:40.573Z,5.53
2022-09-26T02:37:44.635Z,4.63
2022-09-26T02:42:55.238Z,6.10
2022-09-26T02:48:39.943Z,5.05
2022-09-26T02:54:00.097Z,5.65
2022-09-26T02:59:22.660Z,5.93
2022-09-26T03:04:37.805Z,5.20
2022-09-26T03:09:44.740Z,5.47
2022-09-26T03:14:58.450Z,6.20
2022-09-26T03:20:10.221Z,5.72
2022-09-26T03:25:20.828Z,5.63
2022-09-26T03:30:42.834Z,6.13
2022-09-26T03:36:09.595Z,6.53
2022-09-26T03:41:17.144Z,5.85
2022-09-26T03:46:40.246Z,6.40
2022-09-26T03:51:47.676Z,6.15
2022-09-26T03:56:51.681Z,6.50
2022-09-26T04:01:55.724Z,6.57
2022-09-26T04:07:02.056Z,6.67
2022-09-26T04:12:06.245Z,6.95
2022-09-26T04:17:13.234Z,6.70
2022-09-26T04:22:21.765Z,6.22
2022-09-26T04:27:28.892Z,6.68
2022-09-26T04:38:13.623Z,6.13
2022-09-26T04:43:17.523Z,6.55
2022-09-26T04:48:21.763Z,6.90
2022-09-26T04:53:51.395Z,7.13
2022-09-26T04:59:02.340Z,7.53
2022-09-26T05:04:27.764Z,7.60
2022-09-26T05:09:36.146Z,6.47
2022-09-26T05:14:44.775Z,6.32
2022-09-26T05:19:48.838Z,7.25
2022-09-26T05:25:17.878Z,7.60
2022-09-26T05:30:21.855Z,7.78
2022-09-26T05:35:28.330Z,7.68
2022-09-26T05:40:51.454Z,8.30
2022-09-26T05:45:58.680Z,6.28
2022-09-26T05:51:09.224Z,7.18
2022-09-26T05:56:19.743Z,7.40
2022-09-26T06:01:39.106Z,8.10
2022-09-26T06:06:54.234Z,8.50
2022-09-26T06:11:59.781Z,6.47
2022-09-26T06:17:04.310Z,5.18
2022-09-26T06:22:08.425Z,4.95
2022-09-26T06:27:13.752Z,4.80
2022-09-26T06:32:17.874Z,4.75
2022-09-26T06:37:56.301Z,5.95
2022-09-26T06:43:02.105Z,5.93
2022-09-26T06:48:25.113Z,6.32
2022-09-26T06:53:49.266Z,5.82
2022-09-26T06:58:58.794Z,5.68
2022-09-26T07:04:09.492Z,4.72
2022-09-26T07:09:33.789Z,5.10
2022-09-26T07:15:04.133Z,5.10
2022-09-26T07:20:11.110Z,6.75
2022-09-26T07:25:33.806Z,5.57
2022-09-26T07:30:40.727Z,5.22
2022-09-26T07:35:52.107Z,9.60
2022-09-26T07:41:00.906Z,5.07
2022-09-26T07:46:24.379Z,5.80
2022-09-26T07:51:31.549Z,4.95
2022-09-26T07:56:38.461Z,4.55
2022-09-26T08:02:07.358Z,4.50
2022-09-26T08:07:18.684Z,4.70
2022-09-26T08:12:36.759Z,4.07
2022-09-26T08:18:00.874Z,5.28
2022-09-26T08:23:04.998Z,4.80
2022-09-26T08:28:12.958Z,5.47
2022-09-26T08:33:21.279Z,4.90
2022-09-26T08:38:25.587Z,4.57
2022-09-26T08:44:02.811Z,4.35
2022-09-26T08:49:41.882Z,4.18
2022-09-26T08:54:48.501Z,3.70
2022-09-26T08:59:54.620Z,3.35
2022-09-26T09:05:06.203Z,3.55
2022-09-26T09:10:19.262Z,4.03
2022-09-26T09:15:46.620Z,4.30
2022-09-26T09:21:09.730Z,4.18
2022-09-26T09:32:29.393Z,5.28
2022-09-26T09:37:54.410Z,5.70
2022-09-26T09:43:26.141Z,5.43
2022-09-26T09:48:30.285Z,5.38
2022-09-26T09:53:53.886Z,7.40
2022-09-26T09:59:14.068Z,6.82
2022-09-26T10:09:46.329Z,6.60
2022-09-26T10:15:07.739Z,6.60
2022-09-26T10:20:36.466Z,7.47
2022-09-26T10:25:48.621Z,6.22
2022-09-26T10:30:57.174Z,7.00
2022-09-26T10:36:11.825Z,8.23
2022-09-26T10:46:33.349Z,6.85
2022-09-26T10:52:04.617Z,6.10
2022-09-26T10:57:21.079Z,6.50
2022-09-26T11:02:26.520Z,6.95
2022-09-26T11:13:03.578Z,6.45
2022-09-26T11:18:12.319Z,6.60
2022-09-26T11:23:31.882Z,7.28
2022-09-26T11:28:42.477Z,6.65
2022-09-26T11:34:02.525Z,6.97
2022-09-26T11:39:40.803Z,7.45
2022-09-26T11:44:55.618Z,7.28
2022-09-26T11:50:23.751Z,6.57
2022-09-26T11:56:11.712Z,7.38
2022-09-26T12:01:27.732Z,6.68
2022-09-26T12:06:37.301Z,7.38
2022-09-26T12:11:54.432Z,7.47
2022-09-26T12:17:08.690Z,6.97
2022-09-26T12:22:32.066Z,7.03
2022-09-26T12:27:46.211Z,6.53
2022-09-26T12:33:10.070Z,5.70
2022-09-26T12:38:33.017Z,5.75
2022-09-26T12:44:07.798Z,5.32
2022-09-26T12:49:34.528Z,5.80
2022-09-26T12:55:05.220Z,5.40
2022-09-26T13:00:18.743Z,5.35
2022-09-26T13:05:48.706Z,6.00
2022-09-26T13:11:11.380Z,6.43
2022-09-26T13:16:34.179Z,7.65
2022-09-26T13:21:48.741Z,6.55
2022-09-26T13:27:00.658Z,6.45
2022-09-26T13:32:15.957Z,6.60
2022-09-26T13:37:31.811Z,6.27
2022-09-26T13:42:46.768Z,6.70
2022-09-26T13:47:56.672Z,6.38
2022-09-26T13:53:11.231Z,6.35
2022-09-26T13:58:24.909Z,6.07
2022-09-26T14:03:42.683Z,6.95
2022-09-26T14:09:15.724Z,6.03
2022-09-26T14:14:25.260Z,6.18
2022-09-26T14:19:37.023Z,7.00
2022-09-26T14:24:42.681Z,8.32
2022-09-26T14:29:51.999Z,7.70
2022-09-26T14:34:59.306Z,7.88
2022-09-26T14:40:23.243Z,7.03
2022-09-26T14:45:33.850Z,6.38
2022-09-26T14:50:44.901Z,7.00
2022-09-26T14:56:00.641Z,6.97
2022-09-26T15:01:06.611Z,7.57
2022-09-26T15:06:13.979Z,8.13
2022-09-26T15:11:27.866Z,8.93
2022-09-26T15:16:38.198Z,9.05
2022-09-26T15:21:44.968Z,9.65
2022-09-26T15:26:51.187Z,8.90
2022-09-26T15:31:56.076Z,9.00
2022-09-26T15:37:02.249Z,8.03
2022-09-26T15:42:48.847Z,8.95
2022-09-26T15:47:53.282Z,10.38
2022-09-26T15:53:02.193Z,10.10
2022-09-26T15:58:08.777Z,11.80
2022-09-26T16:03:35.754Z,9.20
2022-09-26T16:08:43.163Z,9.00
2022-09-26T16:13:51.434Z,10.20
2022-09-26T16:18:58.664Z,10.05
2022-09-26T16:24:27.540Z,9.55
2022-09-26T16:29:35.272Z,10.95
2022-09-26T16:34:39.257Z,11.13
2022-09-26T16:39:44.082Z,12.23
2022-09-26T16:44:54.877Z,14.60
2022-09-26T16:50:16.961Z,13.02
2022-09-26T16:55:21.700Z,13.68
2022-09-26T17:00:49.952Z,15.05
2022-09-26T17:05:57.001Z,14.70
2022-09-26T17:11:02.875Z,15.63
2022-09-26T17:16:08.913Z,14.52
2022-09-26T17:21:14.836Z,15.95
2022-09-26T17:26:21.716Z,15.77
2022-09-26T17:31:27.349Z,16.30
2022-09-26T17:36:31.248Z,17.80
2022-09-26T17:41:37.897Z,19.02
2022-09-26T17:46:48.345Z,20.42
2022-09-26T17:51:56.023Z,19.52
2022-09-26T17:57:01.157Z,23.45
2022-09-26T18:02:20.145Z,21.98
2022-09-26T18:07:24.435Z,22.63
2022-09-26T18:12:28.168Z,22.42
2022-09-26T18:17:33.460Z,21.05
2022-09-26T18:22:37.235Z,20.75
2022-09-26T18:27:40.844Z,22.95
2022-09-26T18:32:50.756Z,19.70
2022-09-26T18:37:56.643Z,19.58
2022-09-26T18:48:08.145Z,26.75
2022-09-26T18:53:14.551Z,25.13
2022-09-26T18:58:25.664Z,26.13
2022-09-26T19:03:33.284Z,31.38
2022-09-26T19:08:39.297Z,30.27
2022-09-26T19:13:43.812Z,27.45
2022-09-26T19:18:50.353Z,24.70
2022-09-26T19:23:54.945Z,23.00
2022-09-26T19:29:00.271Z,51.88
2022-09-26T19:34:05.767Z,26.55
2022-09-26T19:39:13.482Z,51.05
2022-09-26T19:44:17.260Z,71.68
2022-09-26T19:49:24.146Z,31.40
2022-09-26T19:54:28.434Z,93.75
2022-09-26T19:59:32.115Z,29.38
2022-09-26T20:04:37.441Z,38.05
2022-09-26T20:09:41.721Z,39.67
2022-09-26T20:14:46.037Z,35.85
2022-09-26T20:19:57.739Z,29.50
2022-09-26T20:25:05.090Z,25.63
2022-09-26T20:30:31.471Z,25.77
2022-09-26T20:35:40.983Z,32.70
2022-09-26T20:40:46.168Z,31.40
2022-09-26T20:45:50.562Z,28.25
2022-09-26T20:50:56.683Z,22.20
2022-09-26T20:56:00.734Z,20.90
2022-09-26T21:01:05.021Z,27.52
2022-09-26T21:06:17.499Z,32.10
2022-09-26T21:11:22.607Z,23.13
2022-09-26T21:16:26.824Z,24.57
2022-09-26T21:21:32.327Z,29.17
2022-09-26T21:26:55.586Z,37.38
2022-09-26T21:32:02.993Z,33.42
2022-09-26T21:37:11.167Z,31.35
2022-09-26T21:42:15.217Z,23.00
2022-09-26T21:47:19.322Z,21.23
2022-09-26T21:52:29.582Z,23.33
2022-09-26T21:57:39.667Z,16.50
2022-09-26T22:02:43.695Z,15.43
2022-09-26T22:07:51.768Z,14.95
2022-09-26T22:12:56.061Z,13.90
2022-09-26T22:18:00.007Z,14.35
2022-09-26T22:23:05.279Z,13.52
2022-09-26T22:28:09.362Z,11.43
2022-09-26T22:33:13.437Z,11.15
2022-09-26T22:38:19.312Z,12.20
2022-09-26T22:43:25.225Z,11.48
2022-09-26T22:48:31.573Z,11.93
2022-09-26T22:53:38.677Z,12.63
2022-09-26T22:58:46.344Z,10.93
2022-09-26T23:03:50.525Z,11.10
2022-09-26T23:08:55.773Z,12.13
2022-09-26T23:13:59.747Z,11.93
2022-09-26T23:19:04.887Z,11.53
2022-09-26T23:24:10.386Z,11.43
2022-09-26T23:29:14.498Z,11.38
2022-09-26T23:34:18.528Z,10.75
2022-09-26T23:39:24.432Z,11.27
2022-09-26T23:44:29.372Z,11.63
2022-09-26T23:49:33.229Z,11.20
2022-09-26T23:54:39.913Z,9.68
2022-09-26T23:59:43.781Z,9.27
